Time;durP1;ratioP1;P1;durP2;ratioP2;P2;SDS_P1;SDS_P2;PMS_P1;PMS_P2;Temp;Humidity;BMP_temperature;BMP_pressure;BME280_temperature;BME280_humidity;BME280_pressure;Samples;Min_cycle;Max_cycle;Signal;HPM_P1;HPM_P2
2023/04/26 00:01:35;;;;;;;16.02;8.15;;;;;;;;;;6362423;28;20293;-79
2023/04/26 00:04:40;;;;;;;20.77;8.77;;;;;;;;;;6361851;28;20297;-81
2023/04/26 00:07:46;;;;;;;19.10;8.52;;;;;;;;;;6362292;28;20293;-79
2023/04/26 00:10:52;;;;;;;22.08;9.30;;;;;;;;;;6362072;28;20302;-80
2023/04/26 00:13:59;;;;;;;19.83;8.85;;;;;;;;;;6361772;28;20292;-80
2023/04/26 00:17:04;;;;;;;18.27;8.73;;;;;;;;;;6362376;28;20285;-80
2023/04/26 00:20:12;;;;;;;17.10;8.25;;;;;;;;;;6361783;28;20581;-80
2023/04/26 00:23:17;;;;;;;17.52;9.05;;;;;;;;;;6364478;28;20293;-79
2023/04/26 00:26:24;;;;;;;16.65;8.25;;;;;;;;;;6370787;28;20285;-80
2023/04/26 00:29:29;;;;;;;14.75;8.40;;;;;;;;;;6361283;28;20297;-82
2023/04/26 00:32:35;;;;;;;15.68;8.43;;;;;;;;;;6344087;28;20644;-83
2023/04/26 00:35:43;;;;;;;19.00;8.68;;;;;;;;;;6343193;28;20289;-79
2023/04/26 00:38:48;;;;;;;20.55;9.27;;;;;;;;;;6316659;28;20300;-79
2023/04/26 00:41:55;;;;;;;21.58;9.15;;;;;;;;;;6342655;28;20484;-79
2023/04/26 00:45:00;;;;;;;19.42;9.02;;;;;;;;;;6343039;28;20296;-79
2023/04/26 00:48:05;;;;;;;23.25;9.20;;;;;;;;;;6360641;28;20294;-81
2023/04/26 00:51:12;;;;;;;17.70;9.45;;;;;;;;;;6360576;28;20265;-80
2023/04/26 00:54:18;;;;;;;22.60;9.57;;;;;;;;;;6360926;28;20300;-80
2023/04/26 00:57:26;;;;;;;21.83;9.55;;;;;;;;;;6343203;28;20270;-77
2023/04/26 01:00:32;;;;;;;27.98;9.70;;;;;;;;;;6357041;22;20289;-77
2023/04/26 01:03:40;;;;;;;20.85;9.38;;;;;;;;;;6309515;28;20470;-75
2023/04/26 01:06:45;;;;;;;20.60;10.38;;;;;;;;;;6310146;28;20610;-76
2023/04/26 01:09:57;;;;;;;24.70;10.15;;;;;;;;;;6309694;28;20302;-75
2023/04/26 01:13:04;;;;;;;26.27;10.18;;;;;;;;;;6308396;28;20578;-77
2023/04/26 01:16:11;;;;;;;24.75;10.32;;;;;;;;;;6310110;28;20290;-76
2023/04/26 01:19:17;;;;;;;26.83;10.20;;;;;;;;;;6307947;28;20468;-76
2023/04/26 01:22:22;;;;;;;29.98;11.10;;;;;;;;;;6308794;28;20290;-76
2023/04/26 01:25:29;;;;;;;22.60;10.07;;;;;;;;;;6292168;28;20594;-76
2023/04/26 01:28:35;;;;;;;24.02;10.82;;;;;;;;;;6290335;28;20294;-74
2023/04/26 01:31:42;;;;;;;30.98;10.95;;;;;;;;;;6310005;28;20313;-75
2023/04/26 01:34:47;;;;;;;33.42;11.40;;;;;;;;;;6309045;28;20302;-76
2023/04/26 01:37:55;;;;;;;28.13;11.18;;;;;;;;;;6308647;28;20594;-74
2023/04/26 01:41:02;;;;;;;27.20;11.05;;;;;;;;;;6309541;28;20290;-75
2023/04/26 01:44:09;;;;;;;30.02;11.30;;;;;;;;;;6308262;28;20492;-75
2023/04/26 01:47:15;;;;;;;38.95;12.00;;;;;;;;;;6309391;28;20597;-75
2023/04/26 01:50:20;;;;;;;29.23;11.00;;;;;;;;;;6307720;28;20479;-76
2023/04/26 01:53:25;;;;;;;29.92;10.50;;;;;;;;;;6290744;28;20282;-76
2023/04/26 01:56:32;;;;;;;25.75;10.60;;;;;;;;;;6291631;28;20306;-74
2023/04/26 01:59:38;;;;;;;25.42;10.65;;;;;;;;;;6307915;28;20302;-75
2023/04/26 02:02:43;;;;;;;27.02;10.48;;;;;;;;;;6327179;28;20297;-76
2023/04/26 02:05:49;;;;;;;27.83;11.18;;;;;;;;;;6332597;28;20285;-75
2023/04/26 02:08:55;;;;;;;29.23;10.70;;;;;;;;;;6333372;28;20302;-75
2023/04/26 02:12:02;;;;;;;22.63;10.60;;;;;;;;;;6333190;28;20460;-75
2023/04/26 02:15:08;;;;;;;21.63;10.50;;;;;;;;;;6333800;28;20462;-73
2023/04/26 02:18:15;;;;;;;28.05;11.55;;;;;;;;;;6332741;28;20290;-76
2023/04/26 02:21:21;;;;;;;23.33;10.55;;;;;;;;;;6333805;28;20262;-76
2023/04/26 02:24:26;;;;;;;25.05;10.85;;;;;;;;;;6333380;28;20389;-75
2023/04/26 02:27:33;;;;;;;29.92;10.48;;;;;;;;;;6315500;28;20473;-74
2023/04/26 02:30:38;;;;;;;23.77;10.20;;;;;;;;;;6314789;28;20293;-74
2023/04/26 02:33:44;;;;;;;19.58;9.60;;;;;;;;;;6315332;28;20289;-74
2023/04/26 02:36:49;;;;;;;17.95;9.13;;;;;;;;;;6332587;28;20297;-76
2023/04/26 02:39:54;;;;;;;18.67;9.75;;;;;;;;;;6331695;28;20290;-74
2023/04/26 02:43:01;;;;;;;18.17;9.50;;;;;;;;;;6333162;28;20298;-76
2023/04/26 02:46:08;;;;;;;17.52;9.70;;;;;;;;;;6333281;28;20297;-74
2023/04/26 02:49:13;;;;;;;23.30;9.82;;;;;;;;;;6332000;28;20301;-74
2023/04/26 02:52:18;;;;;;;15.80;9.02;;;;;;;;;;6333660;28;20305;-76
2023/04/26 02:55:24;;;;;;;23.48;10.05;;;;;;;;;;6332043;28;20298;-76
2023/04/26 02:58:31;;;;;;;15.80;8.75;;;;;;;;;;6314442;28;20523;-75
2023/04/26 03:01:36;;;;;;;18.42;9.63;;;;;;;;;;6331034;28;20298;-76
2023/04/26 03:04:45;;;;;;;13.68;9.18;;;;;;;;;;6332404;28;20601;-76
2023/04/26 03:07:50;;;;;;;18.10;9.35;;;;;;;;;;6339248;28;20570;-75
2023/04/26 03:10:55;;;;;;;20.75;9.07;;;;;;;;;;6318935;28;20297;-75
2023/04/26 03:14:02;;;;;;;16.25;8.23;;;;;;;;;;6319002;28;20293;-75
2023/04/26 03:17:08;;;;;;;15.77;8.75;;;;;;;;;;6336354;28;20475;-74
2023/04/26 03:20:14;;;;;;;15.77;8.82;;;;;;;;;;6318734;28;20594;-74
2023/04/26 03:23:22;;;;;;;14.35;8.05;;;;;;;;;;6319205;28;20281;-74
2023/04/26 03:26:29;;;;;;;13.05;8.30;;;;;;;;;;6319140;28;20285;-75
2023/04/26 03:29:36;;;;;;;14.13;8.23;;;;;;;;;;6320162;28;20290;-74
2023/04/26 03:32:41;;;;;;;12.90;7.70;;;;;;;;;;6337603;28;20578;-75
2023/04/26 03:35:46;;;;;;;8.55;7.03;;;;;;;;;;6336594;28;20286;-75
2023/04/26 03:38:51;;;;;;;9.50;6.50;;;;;;;;;;6338843;28;20293;-76
2023/04/26 03:41:57;;;;;;;6.85;6.18;;;;;;;;;;6336165;28;20293;-74
2023/04/26 03:45:05;;;;;;;7.63;5.95;;;;;;;;;;6318822;28;20285;-74
2023/04/26 03:48:12;;;;;;;13.48;6.47;;;;;;;;;;6318144;28;20274;-76
2023/04/26 03:51:17;;;;;;;8.52;6.63;;;;;;;;;;6336603;28;20317;-74
2023/04/26 03:54:23;;;;;;;14.07;6.28;;;;;;;;;;6335339;28;20470;-75
2023/04/26 03:57:29;;;;;;;7.65;5.53;;;;;;;;;;6318769;28;20297;-74
2023/04/26 04:00:37;;;;;;;7.05;5.50;;;;;;;;;;6334524;28;20298;-75
2023/04/26 04:03:42;;;;;;;8.50;5.38;;;;;;;;;;6336295;28;20286;-75
2023/04/26 04:06:47;;;;;;;6.72;5.57;;;;;;;;;;6335363;28;20321;-75
2023/04/26 04:09:52;;;;;;;7.53;5.30;;;;;;;;;;6317614;28;20297;-75
2023/04/26 04:12:58;;;;;;;10.20;5.65;;;;;;;;;;6319044;28;20644;-76
2023/04/26 04:16:08;;;;;;;12.27;5.60;;;;;;;;;;6335901;28;20301;-74
2023/04/26 04:19:14;;;;;;;8.68;4.95;;;;;;;;;;6334216;28;20285;-75
2023/04/26 04:22:20;;;;;;;13.02;5.35;;;;;;;;;;6318234;28;20590;-74
2023/04/26 04:25:26;;;;;;;13.13;5.10;;;;;;;;;;6334343;28;20395;-76
2023/04/26 04:28:47;;;;;;;10.75;4.85;;;;;;;;;;6319119;28;20359;-76
2023/04/26 04:31:55;;;;;;;7.78;4.70;;;;;;;;;;6318045;28;20285;-74
2023/04/26 04:35:00;;;;;;;8.45;4.80;;;;;;;;;;6333840;28;20389;-76
2023/04/26 04:38:06;;;;;;;6.63;4.78;;;;;;;;;;6335158;28;20602;-74
2023/04/26 04:41:13;;;;;;;9.68;4.50;;;;;;;;;;6316839;28;20305;-76
2023/04/26 04:44:18;;;;;;;7.45;4.65;;;;;;;;;;6317604;28;20587;-75
2023/04/26 04:47:25;;;;;;;8.23;4.38;;;;;;;;;;6334583;28;20561;-75
2023/04/26 04:50:30;;;;;;;6.75;3.97;;;;;;;;;;6317457;28;20297;-75
2023/04/26 04:53:36;;;;;;;6.72;4.20;;;;;;;;;;6317068;28;20298;-75
2023/04/26 04:56:41;;;;;;;5.05;3.85;;;;;;;;;;6317272;28;20301;-75
2023/04/26 04:59:48;;;;;;;8.15;3.63;;;;;;;;;;6317300;28;20297;-75
2023/04/26 05:02:55;;;;;;;4.43;3.72;;;;;;;;;;6333715;28;20306;-76
2023/04/26 05:06:01;;;;;;;16.25;4.00;;;;;;;;;;6317331;28;20285;-75
2023/04/26 05:09:06;;;;;;;3.78;3.47;;;;;;;;;;6317044;28;20435;-75
2023/04/26 05:12:13;;;;;;;5.05;3.15;;;;;;;;;;6325495;28;20282;-76
2023/04/26 05:15:18;;;;;;;9.30;3.15;;;;;;;;;;6309532;28;20298;-75
2023/04/26 05:18:24;;;;;;;3.15;2.85;;;;;;;;;;6308752;28;20334;-76
2023/04/26 05:21:31;;;;;;;3.75;3.35;;;;;;;;;;6324612;28;20295;-75
2023/04/26 05:24:36;;;;;;;11.18;2.85;;;;;;;;;;6324640;28;20473;-75
2023/04/26 05:27:41;;;;;;;3.08;2.45;;;;;;;;;;6307776;28;20408;-75
2023/04/26 05:31:12;;;;;;;2.33;2.30;;;;;;;;;;6324420;28;20298;-74
2023/04/26 05:34:28;;;;;;;2.33;2.33;;;;;;;;;;6324749;28;20282;-75
2023/04/26 05:37:35;;;;;;;4.78;2.30;;;;;;;;;;6325405;28;20294;-75
2023/04/26 05:40:40;;;;;;;3.53;2.30;;;;;;;;;;6324610;28;20586;-75
2023/04/26 05:43:47;;;;;;;2.50;2.30;;;;;;;;;;6324489;28;20290;-76
2023/04/26 05:46:53;;;;;;;6.28;2.17;;;;;;;;;;6308107;28;20313;-76
2023/04/26 05:49:59;;;;;;;4.47;2.33;;;;;;;;;;6309154;28;20477;-76
2023/04/26 05:53:05;;;;;;;8.95;1.90;;;;;;;;;;6309956;28;20310;-75
2023/04/26 05:56:11;;;;;;;2.42;1.90;;;;;;;;;;6309296;28;20286;-76
2023/04/26 05:59:16;;;;;;;3.38;1.70;;;;;;;;;;6307363;28;20295;-77
2023/04/26 06:02:22;;;;;;;2.47;1.67;;;;;;;;;;6324583;28;20313;-76
2023/04/26 06:05:29;;;;;;;3.63;1.80;;;;;;;;;;6315239;28;20369;-75
2023/04/26 06:08:35;;;;;;;1.50;1.50;;;;;;;;;;6333314;28;20294;-76
2023/04/26 06:11:40;;;;;;;5.13;1.70;;;;;;;;;;6334029;28;20579;-76
2023/04/26 06:14:45;;;;;;;1.95;1.30;;;;;;;;;;6335756;28;20343;-75
2023/04/26 06:17:57;;;;;;;3.25;1.40;;;;;;;;;;6333331;28;20282;-75
2023/04/26 06:21:05;;;;;;;3.72;1.00;;;;;;;;;;6332282;28;20478;-76
2023/04/26 06:24:11;;;;;;;1.48;1.17;;;;;;;;;;6332672;28;20290;-75
2023/04/26 06:27:16;;;;;;;5.07;1.33;;;;;;;;;;6333919;28;20297;-76
2023/04/26 06:30:24;;;;;;;5.15;1.08;;;;;;;;;;6332444;28;20605;-75
2023/04/26 06:33:30;;;;;;;3.20;1.33;;;;;;;;;;6315835;28;20448;-76
2023/04/26 06:36:37;;;;;;;12.80;1.80;;;;;;;;;;6314837;28;20293;-76
2023/04/26 06:39:43;;;;;;;0.95;0.93;;;;;;;;;;6334224;28;20562;-76
2023/04/26 06:42:49;;;;;;;1.42;1.13;;;;;;;;;;6339190;28;20297;-75
2023/04/26 06:46:01;;;;;;;1.67;1.10;;;;;;;;;;6337829;28;20297;-75
2023/04/26 06:49:06;;;;;;;1.55;1.10;;;;;;;;;;6338048;28;20294;-75
2023/04/26 06:52:14;;;;;;;1.23;0.90;;;;;;;;;;6320883;28;20354;-75
2023/04/26 06:55:19;;;;;;;0.75;0.75;;;;;;;;;;6336782;28;20302;-75
2023/04/26 06:58:25;;;;;;;4.80;1.00;;;;;;;;;;6338170;28;20293;-76
2023/04/26 07:01:32;;;;;;;0.73;0.70;;;;;;;;;;6337202;28;20322;-76
2023/04/26 07:04:38;;;;;;;0.80;0.80;;;;;;;;;;6337651;28;20281;-75
2023/04/26 07:07:44;;;;;;;6.55;1.23;;;;;;;;;;6337583;28;20294;-76
2023/04/26 07:10:50;;;;;;;4.15;1.10;;;;;;;;;;6337014;28;20310;-77
2023/04/26 07:13:55;;;;;;;3.45;1.20;;;;;;;;;;6337149;28;20309;-75
2023/04/26 07:17:01;;;;;;;1.88;0.70;;;;;;;;;;6337686;28;20294;-75
2023/04/26 07:20:07;;;;;;;0.73;0.70;;;;;;;;;;6336087;28;20290;-76
2023/04/26 07:23:15;;;;;;;0.70;0.70;;;;;;;;;;6337347;28;20311;-75
2023/04/26 07:26:21;;;;;;;0.70;0.70;;;;;;;;;;6319053;28;20298;-77
2023/04/26 07:29:26;;;;;;;0.60;0.60;;;;;;;;;;6337392;28;20442;-76
2023/04/26 07:32:31;;;;;;;1.48;0.85;;;;;;;;;;6337731;28;20294;-76
2023/04/26 07:35:36;;;;;;;3.72;1.60;;;;;;;;;;6336992;28;20294;-76
2023/04/26 07:38:43;;;;;;;0.70;0.70;;;;;;;;;;6317170;28;20294;-76
2023/04/26 07:41:48;;;;;;;2.45;1.10;;;;;;;;;;6312240;28;20298;-75
2023/04/26 07:44:53;;;;;;;0.90;0.90;;;;;;;;;;6311770;28;20321;-75
2023/04/26 07:47:59;;;;;;;0.68;0.68;;;;;;;;;;6294381;28;20290;-76
2023/04/26 07:51:11;;;;;;;0.60;0.60;;;;;;;;;;6311258;28;20298;-75
2023/04/26 07:54:18;;;;;;;1.10;1.10;;;;;;;;;;6310540;28;20298;-76
2023/04/26 07:57:23;;;;;;;1.83;1.20;;;;;;;;;;6311729;28;20536;-76
2023/04/26 08:00:28;;;;;;;0.90;0.90;;;;;;;;;;6311394;28;20422;-75
2023/04/26 08:03:33;;;;;;;0.90;0.90;;;;;;;;;;6311516;28;20290;-76
2023/04/26 08:06:43;;;;;;;1.95;1.05;;;;;;;;;;6310305;28;20286;-77
2023/04/26 08:09:50;;;;;;;0.93;0.93;;;;;;;;;;6319608;28;20483;-75
2023/04/26 08:12:56;;;;;;;1.65;1.13;;;;;;;;;;6336040;28;20297;-76
2023/04/26 08:16:01;;;;;;;1.27;0.65;;;;;;;;;;6335958;28;20598;-76
2023/04/26 08:19:06;;;;;;;3.33;0.93;;;;;;;;;;6335991;28;20311;-76
2023/04/26 08:22:13;;;;;;;1.70;0.88;;;;;;;;;;6336204;28;20305;-75
2023/04/26 08:25:19;;;;;;;1.13;0.80;;;;;;;;;;6335675;28;20293;-75
2023/04/26 08:28:25;;;;;;;0.73;0.73;;;;;;;;;;6334531;28;20602;-75
2023/04/26 08:31:30;;;;;;;0.70;0.70;;;;;;;;;;6335286;28;20293;-76
2023/04/26 08:34:35;;;;;;;2.92;0.80;;;;;;;;;;6335115;28;20301;-75
2023/04/26 08:37:41;;;;;;;3.35;0.95;;;;;;;;;;6335877;28;20297;-77
2023/04/26 08:40:48;;;;;;;2.83;0.90;;;;;;;;;;6333961;28;20320;-75
2023/04/26 08:43:54;;;;;;;3.58;0.80;;;;;;;;;;6334966;28;20298;-76
2023/04/26 08:47:04;;;;;;;5.82;0.88;;;;;;;;;;6335949;28;20309;-75
2023/04/26 08:50:13;;;;;;;3.10;1.10;;;;;;;;;;6337215;28;20290;-77
2023/04/26 08:53:18;;;;;;;2.00;1.00;;;;;;;;;;6317306;28;20302;-76
2023/04/26 08:56:26;;;;;;;2.55;0.80;;;;;;;;;;6335439;28;20293;-76
2023/04/26 08:59:31;;;;;;;1.55;0.65;;;;;;;;;;6316846;28;20294;-76
2023/04/26 09:02:36;;;;;;;1.63;0.90;;;;;;;;;;6334561;28;20297;-76
2023/04/26 09:05:44;;;;;;;1.25;0.80;;;;;;;;;;6334245;28;20290;-77
2023/04/26 09:08:49;;;;;;;0.60;0.60;;;;;;;;;;6334598;28;20294;-76
2023/04/26 09:12:00;;;;;;;0.70;0.70;;;;;;;;;;6335490;28;20420;-73
2023/04/26 09:15:07;;;;;;;3.03;0.80;;;;;;;;;;6334871;28;20605;-76
2023/04/26 09:18:19;;;;;;;1.30;0.85;;;;;;;;;;6334251;28;20483;-76
2023/04/26 09:21:24;;;;;;;0.60;0.60;;;;;;;;;;6333490;28;20297;-75
2023/04/26 09:24:29;;;;;;;0.93;0.93;;;;;;;;;;6335051;28;20293;-71
2023/04/26 09:27:37;;;;;;;0.85;0.85;;;;;;;;;;6335419;28;20476;-75
2023/04/26 09:30:43;;;;;;;0.57;0.50;;;;;;;;;;6333501;28;20361;-75
2023/04/26 09:34:03;;;;;;;0.70;0.70;;;;;;;;;;6334251;28;20302;-75
2023/04/26 09:37:12;;;;;;;2.17;0.90;;;;;;;;;;6335010;28;20282;-76
2023/04/26 09:40:19;;;;;;;6.18;1.00;;;;;;;;;;6334057;28;20289;-76
2023/04/26 09:43:26;;;;;;;1.10;0.80;;;;;;;;;;6334699;28;20298;-76
2023/04/26 09:46:31;;;;;;;4.57;0.80;;;;;;;;;;6334166;28;20289;-75
2023/04/26 09:49:47;;;;;;;1.00;0.70;;;;;;;;;;6334063;28;20605;-75
2023/04/26 09:52:52;;;;;;;0.80;0.80;;;;;;;;;;6334381;28;20621;-75
2023/04/26 09:56:05;;;;;;;0.80;0.80;;;;;;;;;;6318877;28;20309;-79
2023/04/26 09:59:12;;;;;;;0.90;0.90;;;;;;;;;;6334092;28;20293;-76
2023/04/26 10:02:20;;;;;;;1.75;0.80;;;;;;;;;;6334445;28;20313;-75
2023/04/26 10:05:26;;;;;;;6.53;0.80;;;;;;;;;;6333636;28;20489;-75
2023/04/26 10:08:32;;;;;;;2.00;0.70;;;;;;;;;;6334414;28;20290;-77
2023/04/26 10:11:39;;;;;;;4.93;0.80;;;;;;;;;;6333425;28;20286;-76
2023/04/26 10:14:47;;;;;;;1.17;0.68;;;;;;;;;;6337731;28;20561;-76
2023/04/26 10:17:52;;;;;;;1.60;0.70;;;;;;;;;;6339586;28;20289;-77
2023/04/26 10:21:01;;;;;;;1.95;1.10;;;;;;;;;;6320950;28;20297;-76
2023/04/26 10:24:07;;;;;;;16.98;1.70;;;;;;;;;;6338972;28;20467;-76
2023/04/26 10:27:15;;;;;;;0.80;0.80;;;;;;;;;;6338554;28;20445;-76
2023/04/26 10:30:23;;;;;;;6.30;1.63;;;;;;;;;;6339208;28;20290;-75
2023/04/26 10:33:28;;;;;;;4.57;0.80;;;;;;;;;;6338969;28;20277;-75
2023/04/26 10:36:33;;;;;;;9.07;1.08;;;;;;;;;;6337568;28;20449;-77
2023/04/26 10:39:39;;;;;;;12.52;1.70;;;;;;;;;;6338405;28;20294;-76
2023/04/26 10:42:44;;;;;;;9.70;1.20;;;;;;;;;;6338300;28;20567;-76
2023/04/26 10:45:50;;;;;;;13.25;1.23;;;;;;;;;;6337970;28;20313;-76
2023/04/26 10:48:57;;;;;;;1.52;0.90;;;;;;;;;;6337348;28;20322;-75
2023/04/26 10:52:15;;;;;;;6.43;1.13;;;;;;;;;;6338101;28;20290;-75
2023/04/26 10:55:40;;;;;;;21.13;2.30;;;;;;;;;;6337782;28;20306;-75
2023/04/26 10:58:47;;;;;;;5.72;1.25;;;;;;;;;;6337570;28;20286;-76
2023/04/26 11:01:53;;;;;;;4.38;1.00;;;;;;;;;;6338396;28;20289;-75
2023/04/26 11:04:59;;;;;;;18.50;1.60;;;;;;;;;;6336450;28;20306;-76
2023/04/26 11:08:05;;;;;;;7.78;1.00;;;;;;;;;;6337982;28;20285;-77
2023/04/26 11:11:12;;;;;;;18.67;1.92;;;;;;;;;;6337130;28;20309;-75
2023/04/26 11:14:18;;;;;;;2.17;0.80;;;;;;;;;;6337466;28;20297;-76
2023/04/26 11:17:25;;;;;;;28.20;2.92;;;;;;;;;;6337646;28;20454;-75
2023/04/26 11:20:31;;;;;;;83.68;4.35;;;;;;;;;;6337363;28;20293;-75
2023/04/26 11:23:37;;;;;;;47.00;2.63;;;;;;;;;;6337270;28;20562;-75
2023/04/26 11:26:42;;;;;;;20.75;1.70;;;;;;;;;;6338787;28;20461;-76
2023/04/26 11:29:47;;;;;;;13.68;1.35;;;;;;;;;;6337508;28;20297;-74
2023/04/26 11:32:54;;;;;;;22.45;2.35;;;;;;;;;;6337369;28;20321;-75
2023/04/26 11:35:59;;;;;;;16.80;1.75;;;;;;;;;;6336551;28;20301;-76
2023/04/26 11:39:05;;;;;;;5.18;0.80;;;;;;;;;;6336975;28;20290;-75
2023/04/26 11:42:13;;;;;;;2.60;1.02;;;;;;;;;;6336110;28;20269;-75
2023/04/26 11:45:18;;;;;;;1.58;1.00;;;;;;;;;;6336288;28;20474;-74
2023/04/26 11:48:25;;;;;;;5.38;1.02;;;;;;;;;;6336707;28;20361;-75
2023/04/26 11:51:31;;;;;;;7.68;1.15;;;;;;;;;;6336516;28;20590;-76
2023/04/26 11:54:36;;;;;;;1.30;0.93;;;;;;;;;;6335589;28;20567;-77
2023/04/26 11:57:42;;;;;;;3.15;0.80;;;;;;;;;;6337164;28;20293;-75
2023/04/26 12:00:57;;;;;;;1.45;0.80;;;;;;;;;;6334598;28;20334;-75
2023/04/26 12:04:10;;;;;;;1.13;1.00;;;;;;;;;;6334874;28;20281;-75
2023/04/26 12:07:20;;;;;;;12.80;1.60;;;;;;;;;;6336393;28;20314;-75
2023/04/26 12:10:26;;;;;;;7.97;1.20;;;;;;;;;;6335547;28;20570;-75
2023/04/26 12:13:32;;;;;;;0.70;0.70;;;;;;;;;;6336351;28;20326;-75
2023/04/26 12:16:38;;;;;;;1.02;0.80;;;;;;;;;;6335728;28;20297;-75
2023/04/26 12:19:44;;;;;;;1.35;0.95;;;;;;;;;;6336842;28;20325;-75
2023/04/26 12:23:14;;;;;;;1.60;1.00;;;;;;;;;;6336121;28;20289;-76
2023/04/26 12:26:19;;;;;;;0.70;0.70;;;;;;;;;;6317410;28;20294;-76
2023/04/26 12:29:24;;;;;;;5.70;1.10;;;;;;;;;;6335450;28;20295;-76
2023/04/26 12:32:30;;;;;;;8.15;1.52;;;;;;;;;;6336117;28;20285;-75
2023/04/26 12:35:37;;;;;;;3.28;0.90;;;;;;;;;;6334442;28;20582;-75
2023/04/26 12:38:42;;;;;;;1.13;1.00;;;;;;;;;;6334046;28;20293;-75
2023/04/26 12:41:47;;;;;;;3.30;1.00;;;;;;;;;;6334878;28;20298;-76
2023/04/26 12:44:53;;;;;;;2.60;1.00;;;;;;;;;;6334229;28;20250;-74
2023/04/26 12:47:58;;;;;;;1.00;1.00;;;;;;;;;;6335700;28;20290;-76
2023/04/26 12:51:05;;;;;;;1.60;0.98;;;;;;;;;;6333812;28;20289;-75
2023/04/26 12:54:10;;;;;;;3.65;0.85;;;;;;;;;;6334581;28;20290;-75
2023/04/26 12:57:16;;;;;;;2.58;1.40;;;;;;;;;;6335995;28;20538;-76
2023/04/26 13:00:21;;;;;;;4.53;0.90;;;;;;;;;;6334594;28;20293;-75
2023/04/26 13:03:26;;;;;;;1.75;1.00;;;;;;;;;;6334663;28;20294;-76
2023/04/26 13:06:33;;;;;;;6.35;1.00;;;;;;;;;;6334475;28;20309;-74
2023/04/26 13:09:38;;;;;;;5.47;1.35;;;;;;;;;;6334622;28;20298;-76
2023/04/26 13:12:44;;;;;;;12.75;1.30;;;;;;;;;;6334668;28;20329;-76
2023/04/26 13:15:49;;;;;;;2.42;1.10;;;;;;;;;;6334790;28;20597;-77
2023/04/26 13:18:54;;;;;;;8.73;1.27;;;;;;;;;;6334450;28;20321;-76
2023/04/26 13:22:03;;;;;;;1.90;1.00;;;;;;;;;;6334770;28;20297;-74
2023/04/26 13:25:09;;;;;;;1.55;1.17;;;;;;;;;;6334239;28;20332;-75
2023/04/26 13:28:15;;;;;;;9.68;1.10;;;;;;;;;;6334922;28;20594;-75
2023/04/26 13:31:20;;;;;;;4.22;1.60;;;;;;;;;;6334058;28;20376;-74
2023/04/26 13:34:25;;;;;;;3.03;0.80;;;;;;;;;;6333873;28;20282;-75
2023/04/26 13:37:32;;;;;;;12.18;1.25;;;;;;;;;;6334484;28;20305;-75
2023/04/26 13:40:38;;;;;;;1.10;1.10;;;;;;;;;;6332380;28;20298;-76
2023/04/26 13:43:43;;;;;;;1.85;1.10;;;;;;;;;;6334044;28;20289;-74
2023/04/26 13:46:48;;;;;;;3.72;1.05;;;;;;;;;;6333772;28;20305;-74
2023/04/26 13:49:54;;;;;;;11.90;2.15;;;;;;;;;;6332961;28;20293;-76
2023/04/26 13:53:00;;;;;;;16.35;1.48;;;;;;;;;;6333556;28;20456;-76
2023/04/26 13:56:08;;;;;;;4.65;1.20;;;;;;;;;;6333858;28;20592;-76
2023/04/26 13:59:13;;;;;;;7.15;1.60;;;;;;;;;;6333240;28;20290;-74
2023/04/26 14:02:18;;;;;;;0.82;0.82;;;;;;;;;;6335163;28;20293;-75
2023/04/26 14:05:23;;;;;;;19.90;1.48;;;;;;;;;;6333310;28;20309;-76
2023/04/26 14:08:30;;;;;;;7.70;1.25;;;;;;;;;;6333473;28;20298;-75
2023/04/26 14:11:35;;;;;;;1.17;1.02;;;;;;;;;;6333129;28;20301;-76
2023/04/26 14:14:41;;;;;;;4.03;1.08;;;;;;;;;;6333347;28;20297;-74
2023/04/26 14:17:46;;;;;;;1.70;1.20;;;;;;;;;;6334148;28;20389;-75
2023/04/26 14:20:51;;;;;;;5.80;1.05;;;;;;;;;;6333390;28;20297;-75
2023/04/26 14:23:58;;;;;;;9.05;1.60;;;;;;;;;;6332523;28;20305;-75
2023/04/26 14:27:03;;;;;;;3.50;1.20;;;;;;;;;;6334054;28;20293;-74
2023/04/26 14:30:11;;;;;;;3.47;1.20;;;;;;;;;;6332376;28;20298;-76
2023/04/26 14:33:17;;;;;;;24.88;2.08;;;;;;;;;;6333874;28;20261;-75
2023/04/26 14:36:22;;;;;;;9.48;1.40;;;;;;;;;;6332965;28;20577;-75
2023/04/26 14:39:29;;;;;;;16.75;1.48;;;;;;;;;;6332800;28;20289;-76
2023/04/26 14:42:34;;;;;;;3.15;1.15;;;;;;;;;;6333365;28;20285;-75
2023/04/26 14:45:42;;;;;;;19.15;2.00;;;;;;;;;;6333071;28;20285;-75
2023/04/26 14:48:49;;;;;;;8.25;1.45;;;;;;;;;;6314907;28;20697;-74
2023/04/26 14:51:54;;;;;;;4.32;0.88;;;;;;;;;;6332290;28;20289;-75
2023/04/26 14:55:00;;;;;;;11.77;1.50;;;;;;;;;;6333043;28;20297;-75
2023/04/26 14:58:08;;;;;;;7.28;1.40;;;;;;;;;;6333130;28;20318;-74
2023/04/26 15:01:13;;;;;;;15.45;1.70;;;;;;;;;;6335686;28;20301;-76
2023/04/26 15:04:18;;;;;;;6.60;1.20;;;;;;;;;;6319591;28;20471;-75
2023/04/26 15:07:23;;;;;;;4.57;1.17;;;;;;;;;;6337734;28;20296;-75
2023/04/26 15:10:38;;;;;;;5.82;1.20;;;;;;;;;;6337094;28;20286;-76
2023/04/26 15:13:43;;;;;;;4.63;0.98;;;;;;;;;;6336913;28;20293;-74
2023/04/26 15:16:48;;;;;;;8.05;1.48;;;;;;;;;;6337918;28;20301;-76
2023/04/26 15:19:53;;;;;;;16.70;1.17;;;;;;;;;;6337062;28;20589;-75
2023/04/26 15:22:58;;;;;;;34.13;2.33;;;;;;;;;;6337693;28;20306;-75
2023/04/26 15:26:05;;;;;;;8.07;1.17;;;;;;;;;;6336944;28;20301;-75
2023/04/26 15:29:12;;;;;;;10.40;1.50;;;;;;;;;;6336917;28;20289;-74
2023/04/26 15:32:17;;;;;;;5.45;1.20;;;;;;;;;;6337097;28;20286;-76
2023/04/26 15:35:23;;;;;;;3.60;1.17;;;;;;;;;;6336553;28;20286;-75
2023/04/26 15:38:29;;;;;;;10.75;1.52;;;;;;;;;;6319017;28;20290;-75
2023/04/26 15:41:35;;;;;;;7.53;1.20;;;;;;;;;;6336915;28;20314;-76
2023/04/26 15:44:41;;;;;;;4.75;1.00;;;;;;;;;;6335550;28;20289;-76
2023/04/26 15:47:46;;;;;;;5.25;1.10;;;;;;;;;;6335873;28;20289;-75
2023/04/26 15:50:52;;;;;;;6.13;1.15;;;;;;;;;;6336588;28;20298;-74
2023/04/26 15:53:57;;;;;;;4.65;1.77;;;;;;;;;;6336428;28;20290;-74
2023/04/26 15:57:04;;;;;;;4.50;1.15;;;;;;;;;;6336979;28;20365;-75
2023/04/26 16:00:13;;;;;;;13.02;2.03;;;;;;;;;;6335786;28;20285;-76
2023/04/26 16:03:19;;;;;;;5.38;1.10;;;;;;;;;;6336976;28;20468;-76
2023/04/26 16:06:26;;;;;;;11.70;1.85;;;;;;;;;;6336254;28;20289;-75
2023/04/26 16:09:31;;;;;;;8.77;2.22;;;;;;;;;;6335908;28;20294;-74
2023/04/26 16:12:38;;;;;;;12.38;2.03;;;;;;;;;;6336070;28;20281;-75
2023/04/26 16:15:44;;;;;;;8.75;1.77;;;;;;;;;;6334974;28;20468;-75
2023/04/26 16:18:49;;;;;;;23.95;2.60;;;;;;;;;;6335640;28;20293;-74
2023/04/26 16:21:54;;;;;;;5.80;1.92;;;;;;;;;;6336395;28;20570;-75
2023/04/26 16:25:01;;;;;;;17.30;2.00;;;;;;;;;;6335724;28;20554;-76
2023/04/26 16:28:08;;;;;;;21.30;2.95;;;;;;;;;;6335882;28;20317;-76
2023/04/26 16:31:15;;;;;;;3.95;1.10;;;;;;;;;;6335845;28;20345;-76
2023/04/26 16:34:20;;;;;;;9.07;1.48;;;;;;;;;;6336431;28;20289;-76
2023/04/26 16:37:26;;;;;;;2.25;1.33;;;;;;;;;;6337345;28;20286;-75
2023/04/26 16:40:31;;;;;;;16.25;1.35;;;;;;;;;;6335475;28;20324;-75
2023/04/26 16:43:38;;;;;;;5.57;1.42;;;;;;;;;;6335496;28;20286;-75
2023/04/26 16:46:43;;;;;;;12.90;1.80;;;;;;;;;;6335547;28;20294;-75
2023/04/26 16:49:48;;;;;;;5.72;1.30;;;;;;;;;;6334988;28;20289;-75
2023/04/26 16:52:53;;;;;;;5.10;1.25;;;;;;;;;;6335845;28;20298;-75
2023/04/26 16:55:59;;;;;;;3.05;1.40;;;;;;;;;;6335122;28;20292;-74
2023/04/26 16:59:05;;;;;;;6.07;1.20;;;;;;;;;;6335422;28;20310;-74
2023/04/26 17:02:13;;;;;;;2.75;1.30;;;;;;;;;;6335311;28;20305;-74
2023/04/26 17:05:19;;;;;;;31.75;1.88;;;;;;;;;;6335076;28;20293;-72
2023/04/26 17:08:24;;;;;;;3.30;0.93;;;;;;;;;;6335421;28;20297;-75
2023/04/26 17:11:29;;;;;;;1.13;1.00;;;;;;;;;;6334804;28;20290;-76
2023/04/26 17:14:36;;;;;;;9.48;1.48;;;;;;;;;;6334689;28;20305;-77
2023/04/26 17:17:56;;;;;;;6.15;0.93;;;;;;;;;;6334858;28;20298;-76
2023/04/26 17:21:02;;;;;;;6.00;1.20;;;;;;;;;;6335064;28;20290;-74
2023/04/26 17:24:08;;;;;;;5.85;1.40;;;;;;;;;;6335001;28;20286;-73
2023/04/26 17:27:13;;;;;;;2.40;0.90;;;;;;;;;;6335815;28;20269;-73
2023/04/26 17:30:20;;;;;;;5.07;1.23;;;;;;;;;;6335929;28;20293;-75
2023/04/26 17:33:28;;;;;;;2.33;1.50;;;;;;;;;;6301993;28;20269;-73
2023/04/26 17:36:33;;;;;;;1.73;1.10;;;;;;;;;;6336261;28;20298;-75
2023/04/26 17:39:38;;;;;;;2.00;1.00;;;;;;;;;;6336341;28;20297;-73
2023/04/26 17:42:46;;;;;;;0.88;0.85;;;;;;;;;;6336540;28;20488;-75
2023/04/26 17:45:53;;;;;;;4.28;1.10;;;;;;;;;;6334477;28;20302;-75
2023/04/26 17:48:58;;;;;;;1.63;0.80;;;;;;;;;;6335984;28;20298;-74
2023/04/26 17:52:03;;;;;;;8.38;1.08;;;;;;;;;;6334897;28;20430;-74
2023/04/26 17:55:10;;;;;;;0.88;0.88;;;;;;;;;;6334253;28;20298;-75
2023/04/26 17:58:15;;;;;;;3.80;0.90;;;;;;;;;;6335197;28;20590;-76
2023/04/26 18:01:22;;;;;;;4.23;0.93;;;;;;;;;;6298055;28;20823;-74
2023/04/26 18:04:35;;;;;;;2.83;1.10;;;;;;;;;;6333667;28;20285;-75
2023/04/26 18:07:40;;;;;;;1.15;0.90;;;;;;;;;;6331635;28;20590;-76
2023/04/26 18:10:45;;;;;;;1.45;0.90;;;;;;;;;;6335220;28;20294;-76
2023/04/26 18:13:52;;;;;;;0.90;0.90;;;;;;;;;;6334536;28;20527;-76
2023/04/26 18:16:59;;;;;;;4.22;1.08;;;;;;;;;;6334580;28;20297;-75
2023/04/26 18:20:05;;;;;;;7.80;1.15;;;;;;;;;;6308160;28;20297;-76
2023/04/26 18:23:11;;;;;;;2.70;1.10;;;;;;;;;;6331807;28;20486;-75
2023/04/26 18:26:16;;;;;;;4.10;0.90;;;;;;;;;;6334084;28;20527;-76
2023/04/26 18:29:21;;;;;;;6.53;0.95;;;;;;;;;;6316140;28;20309;-75
2023/04/26 18:32:29;;;;;;;4.53;0.90;;;;;;;;;;6320778;28;20293;-75